createdAt,value
2023-05-22T00:00:11.467Z,3.02
2023-05-22T00:01:11.466Z,2.72
2023-05-22T00:02:11.533Z,2.76
2023-05-22T00:03:11.553Z,3.00
2023-05-22T00:04:11.586Z,2.95
2023-05-22T00:05:11.658Z,3.48
2023-05-22T00:06:11.723Z,3.08
2023-05-22T00:07:11.693Z,3.03
2023-05-22T00:08:11.722Z,2.52
2023-05-22T00:09:11.757Z,2.85
2023-05-22T00:10:11.760Z,2.87
2023-05-22T00:11:11.769Z,2.54
2023-05-22T00:12:11.830Z,2.61
2023-05-22T00:13:11.833Z,2.88
2023-05-22T00:14:11.855Z,2.80
2023-05-22T00:15:11.914Z,2.62
2023-05-22T00:16:11.939Z,2.47
2023-05-22T00:17:12.034Z,2.87
2023-05-22T00:18:12.034Z,2.68
2023-05-22T00:19:12.114Z,2.42
2023-05-22T00:20:12.031Z,2.45
2023-05-22T00:21:12.049Z,2.67
2023-05-22T00:22:12.092Z,3.01
2023-05-22T00:23:13.809Z,2.93
2023-05-22T00:24:12.119Z,3.01
2023-05-22T00:25:12.105Z,2.68
2023-05-22T00:26:12.085Z,2.98
2023-05-22T00:27:12.100Z,2.88
2023-05-22T00:28:12.081Z,2.34
2023-05-22T00:29:12.061Z,2.57
2023-05-22T00:30:12.051Z,2.91
2023-05-22T00:31:12.045Z,2.47
2023-05-22T00:32:12.056Z,2.62
2023-05-22T00:33:12.027Z,2.85
2023-05-22T00:34:12.039Z,3.11
2023-05-22T00:35:12.021Z,2.78
2023-05-22T00:36:12.010Z,2.93
2023-05-22T00:37:12.052Z,3.04
2023-05-22T00:38:12.107Z,2.89
2023-05-22T00:39:12.010Z,2.91
2023-05-22T00:40:12.028Z,2.56
2023-05-22T00:41:11.991Z,2.92
2023-05-22T00:42:11.991Z,2.44
2023-05-22T00:43:11.969Z,3.32
2023-05-22T00:44:11.977Z,3.35
2023-05-22T00:45:11.958Z,2.45
2023-05-22T00:46:11.998Z,2.71
2023-05-22T00:47:11.942Z,2.90
2023-05-22T00:48:11.929Z,3.35
2023-05-22T00:49:11.945Z,2.94
2023-05-22T00:50:11.941Z,2.51
2023-05-22T00:51:11.919Z,2.65
2023-05-22T00:52:11.914Z,2.80
2023-05-22T00:53:11.895Z,2.79
2023-05-22T00:54:11.884Z,2.68
2023-05-22T00:55:11.880Z,2.20
2023-05-22T00:56:11.874Z,2.86
2023-05-22T00:57:11.885Z,2.77
2023-05-22T00:58:11.861Z,3.21
2023-05-22T00:59:11.868Z,2.93
2023-05-22T01:00:11.861Z,3.11
2023-05-22T01:01:11.887Z,2.85
2023-05-22T01:02:12.005Z,2.90
2023-05-22T01:03:11.874Z,2.85
2023-05-22T01:04:11.940Z,3.40
2023-05-22T01:05:11.833Z,3.26
2023-05-22T01:06:11.828Z,2.65
2023-05-22T01:07:11.803Z,2.87
2023-05-22T01:08:11.793Z,3.22
2023-05-22T01:09:11.812Z,2.92
2023-05-22T01:10:12.000Z,2.86
2023-05-22T01:11:11.777Z,2.33
2023-05-22T01:12:11.775Z,2.87
2023-05-22T01:13:11.757Z,2.86
2023-05-22T01:14:11.773Z,3.37
2023-05-22T01:15:11.742Z,3.08
2023-05-22T01:16:11.772Z,2.85
2023-05-22T01:17:11.745Z,3.18
2023-05-22T01:18:11.771Z,3.13
2023-05-22T01:19:11.812Z,2.57
2023-05-22T01:20:11.719Z,3.20
2023-05-22T01:21:11.709Z,2.35
2023-05-22T01:22:11.702Z,2.73
2023-05-22T01:23:11.694Z,2.93
2023-05-22T01:24:11.752Z,2.60
2023-05-22T01:25:11.688Z,2.94
2023-05-22T01:26:11.685Z,2.57
2023-05-22T01:27:11.680Z,2.16
2023-05-22T01:28:11.671Z,3.39
2023-05-22T01:29:11.661Z,2.49
2023-05-22T01:30:11.645Z,2.74
2023-05-22T01:31:11.646Z,3.01
2023-05-22T01:32:11.643Z,2.99
2023-05-22T01:33:11.719Z,2.63
2023-05-22T01:34:11.641Z,2.78
2023-05-22T01:35:11.609Z,2.59
2023-05-22T01:36:11.599Z,2.60
2023-05-22T01:37:11.612Z,2.65
2023-05-22T01:38:11.605Z,3.10
2023-05-22T01:39:11.574Z,3.14
2023-05-22T01:40:11.586Z,2.86
2023-05-22T01:41:11.578Z,2.87
2023-05-22T01:42:11.570Z,2.78
2023-05-22T01:43:11.562Z,2.81
2023-05-22T01:44:11.566Z,2.77
2023-05-22T01:45:11.574Z,2.84
2023-05-22T01:46:11.554Z,2.41
2023-05-22T01:47:11.525Z,3.12
2023-05-22T01:48:11.526Z,2.59
2023-05-22T01:49:11.537Z,3.32
2023-05-22T01:50:11.509Z,3.13
2023-05-22T01:51:11.517Z,3.54
2023-05-22T01:52:11.516Z,2.64
2023-05-22T01:53:11.500Z,3.06
2023-05-22T01:54:11.490Z,2.60
2023-05-22T01:55:11.485Z,2.93
2023-05-22T01:56:11.481Z,2.83
2023-05-22T01:57:11.490Z,3.00
2023-05-22T01:58:11.470Z,2.73
2023-05-22T01:59:11.475Z,2.47
2023-05-22T02:00:11.442Z,3.04
2023-05-22T02:01:11.474Z,2.91
2023-05-22T02:02:11.491Z,2.76
2023-05-22T02:03:11.607Z,3.24
2023-05-22T02:04:11.454Z,2.84
2023-05-22T02:05:11.433Z,2.94
2023-05-22T02:06:11.409Z,2.83
2023-05-22T02:07:12.252Z,2.85
2023-05-22T02:08:11.415Z,2.79
2023-05-22T02:09:11.403Z,2.98
2023-05-22T02:10:11.395Z,2.99
2023-05-22T02:11:11.396Z,2.45
2023-05-22T02:12:11.370Z,2.84
2023-05-22T02:13:11.367Z,2.65
2023-05-22T02:14:11.354Z,3.22
2023-05-22T02:15:11.355Z,2.45
2023-05-22T02:16:11.383Z,3.22
2023-05-22T02:17:11.347Z,2.77
2023-05-22T02:18:11.396Z,3.15
2023-05-22T02:19:11.393Z,2.66
2023-05-22T02:20:11.314Z,2.96
2023-05-22T02:21:11.323Z,2.70
2023-05-22T02:22:11.309Z,2.80
2023-05-22T02:23:11.309Z,3.06
2023-05-22T02:24:11.288Z,2.94
2023-05-22T02:25:11.287Z,3.09
2023-05-22T02:26:11.284Z,2.88
2023-05-22T02:27:11.252Z,2.98
2023-05-22T02:28:11.261Z,3.49
2023-05-22T02:29:11.257Z,2.78
2023-05-22T02:30:11.248Z,3.37
2023-05-22T02:31:11.250Z,3.14
2023-05-22T02:32:11.218Z,2.68
2023-05-22T02:33:11.302Z,2.91
2023-05-22T02:34:11.212Z,3.00
2023-05-22T02:35:11.200Z,3.15
2023-05-22T02:36:11.198Z,2.74
2023-05-22T02:37:11.184Z,2.64
2023-05-22T02:38:11.180Z,3.00
2023-05-22T02:39:11.155Z,2.64
2023-05-22T02:40:11.167Z,2.67
2023-05-22T02:41:11.147Z,2.93
2023-05-22T02:42:11.130Z,2.36
2023-05-22T02:43:11.135Z,2.97
2023-05-22T02:44:11.119Z,2.91
2023-05-22T02:45:11.114Z,2.85
2023-05-22T02:46:11.167Z,3.06
2023-05-22T02:47:11.119Z,2.65
2023-05-22T02:48:11.131Z,2.63
2023-05-22T02:49:11.100Z,3.02
2023-05-22T02:50:11.109Z,2.84
2023-05-22T02:51:11.083Z,3.36
2023-05-22T02:52:11.097Z,3.53
2023-05-22T02:53:11.072Z,3.05
2023-05-22T02:54:11.056Z,2.81
2023-05-22T02:55:11.064Z,3.09
2023-05-22T02:56:11.054Z,3.06
2023-05-22T02:57:11.051Z,2.67
2023-05-22T02:58:11.038Z,2.67
2023-05-22T02:59:11.032Z,2.82
2023-05-22T03:00:11.015Z,2.84
2023-05-22T03:01:11.105Z,2.46
2023-05-22T03:02:11.053Z,3.19
2023-05-22T03:03:11.088Z,2.83
2023-05-22T03:04:11.127Z,3.01
2023-05-22T03:05:10.994Z,2.61
2023-05-22T03:06:10.986Z,3.33
2023-05-22T03:07:11.014Z,2.59
2023-05-22T03:08:10.977Z,2.89
2023-05-22T03:09:10.998Z,2.65
2023-05-22T03:10:10.966Z,2.99
2023-05-22T03:11:10.951Z,2.93
2023-05-22T03:12:10.977Z,3.18
2023-05-22T03:13:10.951Z,2.94
2023-05-22T03:14:10.956Z,2.96
2023-05-22T03:15:10.932Z,2.90
2023-05-22T03:16:10.956Z,3.39
2023-05-22T03:17:10.936Z,2.90
2023-05-22T03:18:10.981Z,3.43
2023-05-22T03:19:10.929Z,2.65
2023-05-22T03:20:10.882Z,3.09
2023-05-22T03:21:10.895Z,2.89
2023-05-22T03:22:10.902Z,3.38
2023-05-22T03:23:10.876Z,3.02
2023-05-22T03:24:10.870Z,3.08
2023-05-22T03:25:10.868Z,2.78
2023-05-22T03:26:10.863Z,2.94
2023-05-22T03:27:10.876Z,2.96
2023-05-22T03:28:10.894Z,3.04
2023-05-22T03:29:10.932Z,3.23
2023-05-22T03:30:10.890Z,2.94
2023-05-22T03:31:10.902Z,2.70
2023-05-22T03:32:10.949Z,2.87
2023-05-22T03:33:11.050Z,3.03
2023-05-22T03:34:11.066Z,2.79
2023-05-22T03:35:10.960Z,2.67
2023-05-22T03:36:10.944Z,2.73
2023-05-22T03:37:10.962Z,3.20
2023-05-22T03:38:10.969Z,2.59
2023-05-22T03:39:10.999Z,2.60
2023-05-22T03:40:10.997Z,3.13
2023-05-22T03:41:11.017Z,2.87
2023-05-22T03:42:11.047Z,3.09
2023-05-22T03:43:11.044Z,3.38
2023-05-22T03:44:11.065Z,3.04
2023-05-22T03:45:11.091Z,3.04
2023-05-22T03:46:11.188Z,3.00
2023-05-22T03:47:11.099Z,2.86
2023-05-22T03:48:11.154Z,2.76
2023-05-22T03:49:11.115Z,3.19
2023-05-22T03:50:11.171Z,2.81
2023-05-22T03:51:11.162Z,3.22
2023-05-22T03:52:11.169Z,2.63
2023-05-22T03:53:11.176Z,2.83
2023-05-22T03:54:11.195Z,3.03
2023-05-22T03:55:11.219Z,3.08
2023-05-22T03:56:11.229Z,3.09
2023-05-22T03:57:11.260Z,2.98
2023-05-22T03:58:11.245Z,2.70
2023-05-22T03:59:11.273Z,2.92
2023-05-22T04:00:11.281Z,2.94
2023-05-22T04:01:11.304Z,2.61
2023-05-22T04:02:11.350Z,2.60
2023-05-22T04:03:11.435Z,2.91
2023-05-22T04:04:11.366Z,3.02
2023-05-22T04:05:11.421Z,2.32
2023-05-22T04:06:11.379Z,3.18
2023-05-22T04:07:11.406Z,2.89
2023-05-22T04:08:11.413Z,2.86
2023-05-22T04:09:11.445Z,2.69
2023-05-22T04:10:11.465Z,3.05
2023-05-22T04:11:11.470Z,2.81
2023-05-22T04:12:11.491Z,2.63
2023-05-22T04:13:11.522Z,2.94
2023-05-22T04:14:11.539Z,2.78
2023-05-22T04:15:11.537Z,3.21
2023-05-22T04:16:11.640Z,2.95
2023-05-22T04:17:11.605Z,2.75
2023-05-22T04:18:11.654Z,2.43
2023-05-22T04:19:11.683Z,2.69
2023-05-22T04:20:11.638Z,3.14
2023-05-22T04:21:11.644Z,3.06
2023-05-22T04:22:11.668Z,3.19
2023-05-22T04:23:11.698Z,3.31
2023-05-22T04:24:11.726Z,3.24
2023-05-22T04:25:11.730Z,2.55
2023-05-22T04:26:11.750Z,2.29
2023-05-22T04:27:11.756Z,2.89
2023-05-22T04:28:11.780Z,3.23
2023-05-22T04:29:11.793Z,3.14
2023-05-22T04:30:11.789Z,3.15
2023-05-22T04:31:11.866Z,3.07
2023-05-22T04:32:11.852Z,2.96
2023-05-22T04:33:11.879Z,2.68
2023-05-22T04:34:11.849Z,2.69
2023-05-22T04:35:11.883Z,2.76
2023-05-22T04:36:12.696Z,3.31
2023-05-22T04:37:11.906Z,3.18
2023-05-22T04:38:11.917Z,3.19
2023-05-22T04:39:11.907Z,3.31
2023-05-22T04:40:11.936Z,3.15
2023-05-22T04:41:11.961Z,3.04
2023-05-22T04:42:11.967Z,3.13
2023-05-22T04:43:11.990Z,2.71
2023-05-22T04:44:11.997Z,3.10
2023-05-22T04:45:12.004Z,2.87
2023-05-22T04:46:12.038Z,2.80
2023-05-22T04:47:12.138Z,2.79
2023-05-22T04:48:12.049Z,2.64
2023-05-22T04:49:12.072Z,3.13
2023-05-22T04:50:12.072Z,3.10
2023-05-22T04:51:12.093Z,2.87
2023-05-22T04:52:12.102Z,2.51
2023-05-22T04:53:12.098Z,3.20
2023-05-22T04:54:12.149Z,3.13
2023-05-22T04:55:12.176Z,2.70
2023-05-22T04:56:14.676Z,2.42
2023-05-22T04:57:12.117Z,3.02
2023-05-22T04:58:12.099Z,3.06
2023-05-22T04:59:12.091Z,2.62
2023-05-22T05:00:12.086Z,3.26
2023-05-22T05:01:12.113Z,2.80
2023-05-22T05:02:12.076Z,3.18
2023-05-22T05:03:12.202Z,2.64
2023-05-22T05:04:12.090Z,2.40
2023-05-22T05:05:12.055Z,2.65
2023-05-22T05:06:12.035Z,2.56
2023-05-22T05:07:12.088Z,2.97
2023-05-22T05:08:12.012Z,2.78
2023-05-22T05:09:12.007Z,2.58
2023-05-22T05:10:12.021Z,2.72
2023-05-22T05:11:12.015Z,3.77
2023-05-22T05:12:12.026Z,3.05
2023-05-22T05:13:11.993Z,3.02
2023-05-22T05:14:11.981Z,2.17
2023-05-22T05:15:11.975Z,2.78
2023-05-22T05:16:12.022Z,3.09
2023-05-22T05:17:11.954Z,3.17
2023-05-22T05:18:12.442Z,2.49
2023-05-22T05:19:12.011Z,2.80
2023-05-22T05:20:11.941Z,3.13
2023-05-22T05:21:11.925Z,6.64
2023-05-22T05:22:11.921Z,8.20
2023-05-22T05:23:11.942Z,8.68
2023-05-22T05:24:11.910Z,8.89
2023-05-22T05:25:12.036Z,8.57
2023-05-22T05:26:11.910Z,7.32
2023-05-22T05:27:11.934Z,7.48
2023-05-22T05:28:11.982Z,7.10
2023-05-22T05:29:12.006Z,6.09
2023-05-22T05:30:12.010Z,7.13
2023-05-22T05:31:12.030Z,6.78
2023-05-22T05:32:12.076Z,7.27
2023-05-22T05:33:12.093Z,6.81
2023-05-22T05:34:12.074Z,6.39
2023-05-22T05:35:12.144Z,5.84
2023-05-22T05:36:12.186Z,6.22
2023-05-22T05:37:12.227Z,6.79
2023-05-22T05:38:12.395Z,6.21
2023-05-22T05:39:12.265Z,6.69
2023-05-22T05:40:12.301Z,6.40
2023-05-22T05:41:12.316Z,6.26
2023-05-22T05:42:12.313Z,6.02
2023-05-22T05:43:12.300Z,6.73
2023-05-22T05:44:12.303Z,6.05
2023-05-22T05:45:12.325Z,5.17
2023-05-22T05:46:12.392Z,5.64
2023-05-22T05:47:12.445Z,5.53
2023-05-22T05:48:12.597Z,5.90
2023-05-22T05:49:12.577Z,5.19
2023-05-22T05:50:12.630Z,5.71
2023-05-22T05:51:12.688Z,5.17
2023-05-22T05:52:12.766Z,4.75
2023-05-22T05:53:12.809Z,4.77
2023-05-22T05:54:12.851Z,4.88
2023-05-22T05:55:12.906Z,4.83
2023-05-22T05:56:13.063Z,4.42
2023-05-22T05:57:12.999Z,5.04
2023-05-22T05:58:13.014Z,4.81
2023-05-22T05:59:13.046Z,4.68
2023-05-22T06:00:13.115Z,4.81
2023-05-22T06:01:13.166Z,3.87
2023-05-22T06:02:13.192Z,4.02
2023-05-22T06:03:13.303Z,4.27
2023-05-22T06:04:13.239Z,4.04
2023-05-22T06:05:13.308Z,4.60
2023-05-22T06:06:13.318Z,3.79
2023-05-22T06:07:13.340Z,4.39
2023-05-22T06:08:13.390Z,4.01
2023-05-22T06:09:13.406Z,4.37
2023-05-22T06:10:13.435Z,3.74
2023-05-22T06:11:13.460Z,4.42
2023-05-22T06:12:13.468Z,3.94
2023-05-22T06:13:13.506Z,4.21
2023-05-22T06:14:13.517Z,4.15
2023-05-22T06:15:13.560Z,3.91
2023-05-22T06:16:13.623Z,4.31
2023-05-22T06:17:13.582Z,4.43
2023-05-22T06:18:13.893Z,4.03
2023-05-22T06:19:13.698Z,3.57
2023-05-22T06:20:13.639Z,3.74
2023-05-22T06:21:13.660Z,3.77
2023-05-22T06:22:13.683Z,3.65
2023-05-22T06:23:13.907Z,4.19
2023-05-22T06:24:13.701Z,4.07
2023-05-22T06:25:13.745Z,4.07
2023-05-22T06:26:13.760Z,3.58
2023-05-22T06:27:13.908Z,3.70
2023-05-22T06:28:13.784Z,3.51
2023-05-22T06:29:13.817Z,4.01
2023-05-22T06:30:13.838Z,4.12
2023-05-22T06:31:13.930Z,3.91
2023-05-22T06:32:13.926Z,3.57
2023-05-22T06:33:13.978Z,3.43
2023-05-22T06:34:13.970Z,3.94
2023-05-22T06:35:13.937Z,4.29
2023-05-22T06:36:13.957Z,3.95
2023-05-22T06:37:14.394Z,3.72
2023-05-22T06:38:14.014Z,3.85
2023-05-22T06:39:14.033Z,4.28
2023-05-22T06:40:14.089Z,4.39
2023-05-22T06:41:14.055Z,4.22
2023-05-22T06:42:14.047Z,4.15
2023-05-22T06:43:14.056Z,4.95
2023-05-22T06:44:14.072Z,4.59
2023-05-22T06:45:14.073Z,4.34
2023-05-22T06:46:14.097Z,5.06
2023-05-22T06:47:14.401Z,4.41
2023-05-22T06:48:14.133Z,3.79
2023-05-22T06:49:14.101Z,4.17
2023-05-22T06:50:14.127Z,4.01
2023-05-22T06:51:14.129Z,4.30
2023-05-22T06:52:14.130Z,3.95
2023-05-22T06:53:14.122Z,4.38
2023-05-22T06:54:14.115Z,5.33
2023-05-22T06:55:14.137Z,5.97
2023-05-22T06:56:14.178Z,5.96
2023-05-22T06:57:14.164Z,6.45
2023-05-22T06:58:14.199Z,5.92
2023-05-22T06:59:14.202Z,6.30
2023-05-22T07:00:14.303Z,6.55
2023-05-22T07:01:14.291Z,7.21
2023-05-22T07:02:14.248Z,6.91
2023-05-22T07:03:14.380Z,6.73
2023-05-22T07:04:14.289Z,6.62
2023-05-22T07:05:14.311Z,7.28
2023-05-22T07:06:14.382Z,8.08
2023-05-22T07:07:14.322Z,6.90
2023-05-22T07:08:14.317Z,6.64
2023-05-22T07:09:14.341Z,7.89
2023-05-22T07:10:14.333Z,6.47
2023-05-22T07:11:14.340Z,7.51
2023-05-22T07:12:14.354Z,7.35
2023-05-22T07:13:14.402Z,7.94
2023-05-22T07:14:14.380Z,7.40
2023-05-22T07:15:14.428Z,7.62
2023-05-22T07:16:14.456Z,7.32
2023-05-22T07:17:14.412Z,7.20
2023-05-22T07:18:14.436Z,6.70
2023-05-22T07:19:14.455Z,7.74
2023-05-22T07:20:14.420Z,6.81
2023-05-22T07:21:14.416Z,7.66
2023-05-22T07:22:14.425Z,7.30
2023-05-22T07:23:14.439Z,6.70
2023-05-22T07:24:14.429Z,7.46
2023-05-22T07:25:14.442Z,6.35
2023-05-22T07:26:14.454Z,7.09
2023-05-22T07:27:14.454Z,6.88
2023-05-22T07:28:14.468Z,7.55
2023-05-22T07:29:14.498Z,7.01
2023-05-22T07:30:14.537Z,7.92
2023-05-22T07:31:14.591Z,7.43
2023-05-22T07:32:14.596Z,6.39
2023-05-22T07:33:14.940Z,7.22
2023-05-22T07:34:14.677Z,6.54
2023-05-22T07:35:14.745Z,7.01
2023-05-22T07:36:14.797Z,7.63
2023-05-22T07:37:14.852Z,6.91
2023-05-22T07:38:14.935Z,7.05
2023-05-22T07:39:14.975Z,6.88
2023-05-22T07:40:15.017Z,6.91
2023-05-22T07:41:15.053Z,6.16
2023-05-22T07:42:15.141Z,5.63
2023-05-22T07:43:15.462Z,5.85
2023-05-22T07:44:15.174Z,5.28
2023-05-22T07:45:15.226Z,5.83
2023-05-22T07:46:15.296Z,5.31
2023-05-22T07:47:15.280Z,5.57
2023-05-22T07:48:15.484Z,5.47
2023-05-22T07:49:15.380Z,5.12
2023-05-22T07:50:15.554Z,4.69
2023-05-22T07:51:15.434Z,4.16
2023-05-22T07:52:15.460Z,4.86
2023-05-22T07:53:15.516Z,5.10
2023-05-22T07:54:15.531Z,4.63
2023-05-22T07:55:15.569Z,4.46
2023-05-22T07:56:15.551Z,5.31
2023-05-22T07:57:15.599Z,4.11
2023-05-22T07:58:15.934Z,4.13
2023-05-22T07:59:15.649Z,3.92
2023-05-22T08:00:15.924Z,4.36
2023-05-22T08:01:15.730Z,4.37
2023-05-22T08:02:15.741Z,4.13
2023-05-22T08:03:17.514Z,4.38
2023-05-22T08:04:15.835Z,5.15
2023-05-22T08:05:15.966Z,3.40
2023-05-22T08:06:15.769Z,3.92
2023-05-22T08:07:15.783Z,3.98
2023-05-22T08:08:15.778Z,3.94
2023-05-22T08:09:15.815Z,4.05
2023-05-22T08:10:15.823Z,4.05
2023-05-22T08:11:15.820Z,3.52
2023-05-22T08:12:15.840Z,3.88
2023-05-22T08:13:15.828Z,3.50
2023-05-22T08:14:15.848Z,3.78
2023-05-22T08:15:15.843Z,3.82
2023-05-22T08:16:15.858Z,3.75
2023-05-22T08:17:15.890Z,3.83
2023-05-22T08:18:15.941Z,3.91
2023-05-22T08:19:15.940Z,3.58
2023-05-22T08:20:15.896Z,3.69
2023-05-22T08:21:15.872Z,3.72
2023-05-22T08:22:16.100Z,3.11
2023-05-22T08:23:15.952Z,3.55
2023-05-22T08:24:15.862Z,3.29
2023-05-22T08:25:15.848Z,3.93
2023-05-22T08:26:15.878Z,3.98
2023-05-22T08:27:15.865Z,4.52
2023-05-22T08:28:15.862Z,4.03
2023-05-22T08:29:15.900Z,4.69
2023-05-22T08:30:15.856Z,3.97
2023-05-22T08:31:15.925Z,4.51
2023-05-22T08:32:15.881Z,4.43
2023-05-22T08:33:15.958Z,4.70
2023-05-22T08:34:15.937Z,4.88
2023-05-22T08:35:15.930Z,3.93
2023-05-22T08:36:15.974Z,4.96
2023-05-22T08:37:15.969Z,4.94
2023-05-22T08:38:15.997Z,4.97
2023-05-22T08:39:16.438Z,5.43
2023-05-22T08:40:16.016Z,5.88
2023-05-22T08:41:16.037Z,5.60
2023-05-22T08:42:16.063Z,5.13
2023-05-22T08:43:16.061Z,5.95
2023-05-22T08:44:16.057Z,5.04
2023-05-22T08:45:16.050Z,5.59
2023-05-22T08:46:16.063Z,5.45
2023-05-22T08:47:16.073Z,5.66
2023-05-22T08:48:16.050Z,5.42
2023-05-22T08:49:16.471Z,5.82
2023-05-22T08:50:16.050Z,5.19
2023-05-22T08:51:16.032Z,5.69
2023-05-22T08:52:16.078Z,5.84
2023-05-22T08:53:16.068Z,6.31
2023-05-22T08:54:16.200Z,5.84
2023-05-22T08:55:16.113Z,5.53
2023-05-22T08:56:16.159Z,5.80
2023-05-22T08:57:16.226Z,5.05
2023-05-22T08:58:16.268Z,5.04
2023-05-22T08:59:16.464Z,5.90
2023-05-22T09:00:16.382Z,6.01
2023-05-22T09:01:16.508Z,5.84
2023-05-22T09:02:16.504Z,5.95
2023-05-22T09:03:16.701Z,5.78
2023-05-22T09:04:17.462Z,5.45
2023-05-22T09:05:16.713Z,5.93
2023-05-22T09:06:16.746Z,5.65
2023-05-22T09:07:16.806Z,5.72
2023-05-22T09:08:20.975Z,5.83
2023-05-22T09:09:16.871Z,5.30
2023-05-22T09:10:17.012Z,5.52
2023-05-22T09:11:16.848Z,5.90
2023-05-22T09:12:16.824Z,5.02
2023-05-22T09:13:16.845Z,5.28
2023-05-22T09:14:16.813Z,5.05
2023-05-22T09:15:16.810Z,5.60
2023-05-22T09:16:16.833Z,5.02
2023-05-22T09:17:16.878Z,5.57
2023-05-22T09:18:16.968Z,4.94
2023-05-22T09:19:16.820Z,5.74
2023-05-22T09:20:16.776Z,5.02
2023-05-22T09:21:28.727Z,5.29
2023-05-22T09:22:17.780Z,5.39
2023-05-22T09:23:16.774Z,5.52
2023-05-22T09:24:16.746Z,5.40
2023-05-22T09:25:16.765Z,5.67
2023-05-22T09:26:16.784Z,5.12
2023-05-22T09:27:16.735Z,5.44
2023-05-22T09:28:16.819Z,5.89
2023-05-22T09:29:16.730Z,5.00
2023-05-22T09:30:16.716Z,5.35
2023-05-22T09:31:16.731Z,5.59
2023-05-22T09:32:16.709Z,4.42
2023-05-22T09:33:16.967Z,5.39
2023-05-22T09:34:16.760Z,5.50
2023-05-22T09:35:16.793Z,5.42
2023-05-22T09:36:16.811Z,5.21
2023-05-22T09:37:16.835Z,4.51
2023-05-22T09:38:16.991Z,5.43
2023-05-22T09:39:16.876Z,4.71
2023-05-22T09:40:16.897Z,5.05
2023-05-22T09:41:16.910Z,5.10
2023-05-22T09:42:16.975Z,6.20
2023-05-22T09:43:16.979Z,5.16
2023-05-22T09:44:16.966Z,4.53
2023-05-22T09:45:16.974Z,5.22
2023-05-22T09:46:17.036Z,4.87
2023-05-22T09:47:17.027Z,4.63
2023-05-22T09:48:17.529Z,5.11
2023-05-22T09:49:17.596Z,4.86
2023-05-22T09:50:17.070Z,4.51
2023-05-22T09:51:17.068Z,4.68
2023-05-22T09:52:17.086Z,4.98
2023-05-22T09:53:17.148Z,5.44
2023-05-22T09:54:17.106Z,4.81
2023-05-22T09:55:17.111Z,5.01
2023-05-22T09:56:21.439Z,4.91
2023-05-22T09:57:18.143Z,5.86
2023-05-22T09:58:17.109Z,4.76
2023-05-22T09:59:17.101Z,5.66
2023-05-22T10:00:17.103Z,5.33
2023-05-22T10:01:17.140Z,5.03
2023-05-22T10:02:17.091Z,4.58
2023-05-22T10:03:17.498Z,4.80
2023-05-22T10:04:17.104Z,4.91
2023-05-22T10:05:17.083Z,5.29
2023-05-22T10:06:17.069Z,5.02
2023-05-22T10:07:17.062Z,5.75
2023-05-22T10:08:17.067Z,5.51
2023-05-22T10:09:19.353Z,5.31
2023-05-22T10:10:17.139Z,4.59
2023-05-22T10:11:17.140Z,5.18
2023-05-22T10:12:17.125Z,4.46
2023-05-22T10:13:17.138Z,4.73
2023-05-22T10:14:17.245Z,5.06
2023-05-22T10:15:17.243Z,4.30
2023-05-22T10:16:18.053Z,5.15
2023-05-22T10:17:17.259Z,5.73
2023-05-22T10:18:17.243Z,5.51
2023-05-22T10:19:17.539Z,5.01
2023-05-22T10:20:17.255Z,5.60
2023-05-22T10:21:17.268Z,5.30
2023-05-22T10:22:17.286Z,5.42
2023-05-22T10:23:17.515Z,5.00
2023-05-22T10:24:17.530Z,5.91
2023-05-22T10:25:17.392Z,5.36
2023-05-22T10:26:17.426Z,5.40
2023-05-22T10:27:17.418Z,5.35
2023-05-22T10:28:17.456Z,5.65
2023-05-22T10:29:17.501Z,3.97
2023-05-22T10:30:17.602Z,4.13
2023-05-22T10:31:17.525Z,3.95
2023-05-22T10:32:17.547Z,5.04
2023-05-22T10:33:18.127Z,4.39
2023-05-22T10:34:17.565Z,5.08
2023-05-22T10:35:17.565Z,5.06
2023-05-22T10:36:17.609Z,4.73
2023-05-22T10:37:20.684Z,4.64
2023-05-22T10:38:17.605Z,4.71
2023-05-22T10:39:17.580Z,4.49
2023-05-22T10:40:18.365Z,5.33
2023-05-22T10:41:17.583Z,6.14
2023-05-22T10:42:17.556Z,5.38
2023-05-22T10:43:17.583Z,5.67
2023-05-22T10:44:17.607Z,6.07
2023-05-22T10:45:17.540Z,5.93
2023-05-22T10:46:17.641Z,4.55
2023-05-22T10:47:17.521Z,5.20
2023-05-22T10:48:17.511Z,4.36
2023-05-22T10:49:17.521Z,4.39
2023-05-22T10:50:17.499Z,3.80
2023-05-22T10:51:17.508Z,3.85
2023-05-22T10:52:17.492Z,4.58
2023-05-22T10:53:17.484Z,4.00
2023-05-22T10:54:17.510Z,4.89
2023-05-22T10:55:17.477Z,5.79
2023-05-22T10:56:17.463Z,5.31
2023-05-22T10:57:17.469Z,4.56
2023-05-22T10:58:17.466Z,5.74
2023-05-22T10:59:17.444Z,5.96
2023-05-22T11:00:17.446Z,6.42
2023-05-22T11:01:17.509Z,7.23
2023-05-22T11:02:17.585Z,6.50
2023-05-22T11:03:18.615Z,5.46
2023-05-22T11:04:17.457Z,4.95
2023-05-22T11:05:17.421Z,4.71
2023-05-22T11:06:17.397Z,4.07
2023-05-22T11:07:17.424Z,3.54
2023-05-22T11:08:19.433Z,3.83
2023-05-22T11:09:17.374Z,3.50
2023-05-22T11:10:17.382Z,3.98
2023-05-22T11:11:17.359Z,3.18
2023-05-22T11:12:17.510Z,4.33
2023-05-22T11:13:17.533Z,4.35
2023-05-22T11:14:17.361Z,3.29
2023-05-22T11:15:17.388Z,3.28
2023-05-22T11:16:17.459Z,4.05
2023-05-22T11:17:17.535Z,4.18
2023-05-22T11:18:18.122Z,3.98
2023-05-22T11:20:17.675Z,4.01
2023-05-22T11:21:17.567Z,4.30
2023-05-22T11:22:17.570Z,4.43
2023-05-22T11:23:17.554Z,4.55
2023-05-22T11:24:17.568Z,4.52
2023-05-22T11:25:17.534Z,4.24
2023-05-22T11:26:17.549Z,4.05
2023-05-22T11:27:17.521Z,4.11
2023-05-22T11:28:17.508Z,4.05
2023-05-22T11:29:17.503Z,4.76
2023-05-22T11:30:17.623Z,4.25
2023-05-22T11:31:17.550Z,4.10
2023-05-22T11:32:17.486Z,3.65
2023-05-22T11:33:17.556Z,4.30
2023-05-22T11:34:17.597Z,3.97
2023-05-22T11:35:17.524Z,3.25
2023-05-22T11:36:17.462Z,3.61
2023-05-22T11:37:17.449Z,3.01
2023-05-22T11:38:17.437Z,3.63
2023-05-22T11:39:17.436Z,3.00
2023-05-22T11:40:17.426Z,3.53
2023-05-22T11:41:17.447Z,2.88
2023-05-22T11:42:17.401Z,3.05
2023-05-22T11:43:17.405Z,3.38
2023-05-22T11:44:17.421Z,2.76
2023-05-22T11:45:17.386Z,3.12
2023-05-22T11:46:17.393Z,3.41
2023-05-22T11:47:17.377Z,3.23
2023-05-22T11:48:17.459Z,3.47
2023-05-22T11:49:17.414Z,3.29
2023-05-22T11:50:25.894Z,3.38
2023-05-22T11:51:18.356Z,3.41
2023-05-22T11:52:17.338Z,3.25
2023-05-22T11:53:17.334Z,3.67
2023-05-22T11:54:17.324Z,2.96
2023-05-22T11:55:17.319Z,3.22
2023-05-22T11:56:17.316Z,3.77
2023-05-22T11:57:17.309Z,2.81
2023-05-22T11:58:17.291Z,2.64
2023-05-22T11:59:17.352Z,3.07
2023-05-22T12:00:17.408Z,3.13
2023-05-22T12:01:17.483Z,3.18
2023-05-22T12:02:17.515Z,3.18
2023-05-22T12:03:18.175Z,3.49
2023-05-22T12:04:17.675Z,3.06
2023-05-22T12:05:17.697Z,2.84
2023-05-22T12:06:17.956Z,3.07
2023-05-22T12:07:17.817Z,3.17
2023-05-22T12:08:18.045Z,2.35
2023-05-22T12:09:17.905Z,2.43
2023-05-22T12:10:17.968Z,3.26
2023-05-22T12:11:18.014Z,3.83
2023-05-22T12:12:19.095Z,2.97
2023-05-22T12:13:18.112Z,3.06
2023-05-22T12:14:18.172Z,3.12
2023-05-22T12:15:18.200Z,2.65
2023-05-22T12:16:18.305Z,2.98
2023-05-22T12:17:18.287Z,2.89
2023-05-22T12:18:18.291Z,2.68
2023-05-22T12:19:18.340Z,3.04
2023-05-22T12:20:18.345Z,2.76
2023-05-22T12:21:18.379Z,2.61
2023-05-22T12:22:18.365Z,2.48
2023-05-22T12:23:18.373Z,2.64
2023-05-22T12:24:18.414Z,2.55
2023-05-22T12:25:18.390Z,2.20
2023-05-22T12:26:18.394Z,2.54
2023-05-22T12:27:18.419Z,2.80
2023-05-22T12:28:18.427Z,2.90
2023-05-22T12:29:18.433Z,2.65
2023-05-22T12:30:18.506Z,2.63
2023-05-22T12:31:18.469Z,2.81
2023-05-22T12:32:18.506Z,2.66
2023-05-22T12:33:18.564Z,2.12
2023-05-22T12:34:18.547Z,2.62
2023-05-22T12:35:18.516Z,2.92
2023-05-22T12:36:18.538Z,2.46
2023-05-22T12:37:18.531Z,2.78
2023-05-22T12:38:18.587Z,2.26
2023-05-22T12:39:18.510Z,2.58
2023-05-22T12:40:18.551Z,2.38
2023-05-22T12:41:18.515Z,2.34
2023-05-22T12:42:18.511Z,2.24
2023-05-22T12:43:18.523Z,2.69
2023-05-22T12:44:18.522Z,2.39
2023-05-22T12:45:18.518Z,1.79
2023-05-22T12:46:18.633Z,2.73
2023-05-22T12:47:18.525Z,2.34
2023-05-22T12:48:18.512Z,2.32
2023-05-22T12:49:18.532Z,2.69
2023-05-22T12:50:18.529Z,2.07
2023-05-22T12:51:20.026Z,2.36
2023-05-22T12:52:18.548Z,2.44
2023-05-22T12:53:18.534Z,2.56
2023-05-22T12:54:18.612Z,2.47
2023-05-22T12:55:18.516Z,2.53
2023-05-22T12:56:18.525Z,2.69
2023-05-22T12:57:18.500Z,2.30
2023-05-22T12:58:18.516Z,2.29
2023-05-22T12:59:20.753Z,2.50
2023-05-22T13:00:18.541Z,2.57
2023-05-22T13:01:18.571Z,2.10
2023-05-22T13:02:18.584Z,2.26
2023-05-22T13:03:18.580Z,2.57
2023-05-22T13:04:18.549Z,3.00
2023-05-22T13:05:18.613Z,2.39
2023-05-22T13:06:18.552Z,2.15
2023-05-22T13:07:18.575Z,2.36
2023-05-22T13:08:18.575Z,2.31
2023-05-22T13:09:18.585Z,1.91
2023-05-22T13:10:18.688Z,2.50
2023-05-22T13:11:18.573Z,2.46
2023-05-22T13:12:18.600Z,2.59
2023-05-22T13:13:18.602Z,2.43
2023-05-22T13:14:18.601Z,2.62
2023-05-22T13:15:18.599Z,2.98
2023-05-22T13:16:18.642Z,2.05
2023-05-22T13:17:18.619Z,2.54
2023-05-22T13:18:18.633Z,2.98
2023-05-22T13:19:18.643Z,2.44